Time,TemperatureF,DewpointF,PressureIn,WindDirection,WindDirectionDegrees,WindSpeedMPH,WindSpeedGustMPH,Humidity,HourlyPrecipIn,Conditions,Clouds,dailyrainin,SoftwareType,DateUTC
2013-03-06 00:10:00,24.9,21.0,30.34,NW,321,11.0,23.0,84,0.00,,,0.00,weatherlink.com 1.10,2013-03-06 06:10:00,
2013-03-06 00:25:00,24.7,21.0,30.34,NW,306,12.0,17.0,84,0.00,,,0.00,weatherlink.com 1.10,2013-03-06 06:25:00,
2013-03-06 00:40:00,24.5,20.0,30.34,WNW,290,3.0,18.0,84,0.00,,,0.00,weatherlink.com 1.10,2013-03-06 06:40:00,
2013-03-06 00:55:00,24.4,21.0,30.35,NW,309,5.0,16.0,85,0.00,,,0.00,weatherlink.com 1.10,2013-03-06 06:55:00,
2013-03-06 01:10:00,24.3,20.0,30.36,WNW,296,11.0,18.0,85,0.00,,,0.00,weatherlink.com 1.10,2013-03-06 07:10:00,
2013-03-06 01:25:00,24.3,20.0,30.37,NW,309,6.0,19.0,85,0.00,,,0.00,weatherlink.com 1.10,2013-03-06 07:25:00,
2013-03-06 01:40:00,24.3,20.0,30.37,NW,311,10.0,14.0,85,0.00,,,0.00,weatherlink.com 1.10,2013-03-06 07:40:00,
2013-03-06 01:55:00,24.3,20.0,30.38,WNW,289,2.0,17.0,85,0.00,,,0.00,weatherlink.com 1.10,2013-03-06 07:55:00,
2013-03-06 02:10:00,24.3,20.0,30.38,WNW,303,3.0,20.0,85,0.00,,,0.00,weatherlink.com 1.10,2013-03-06 08:10:00,
2013-03-06 02:25:00,24.3,21.0,30.39,WNW,296,11.0,14.0,86,0.00,,,0.00,weatherlink.com 1.10,2013-03-06 08:25:00,
2013-03-06 02:40:00,24.3,21.0,30.38,NW,319,4.0,16.0,86,0.00,,,0.00,weatherlink.com 1.10,2013-03-06 08:40:00,
2013-03-06 02:55:00,24.2,21.0,30.38,NW,308,7.0,14.0,86,0.00,,,0.00,weatherlink.com 1.10,2013-03-06 08:55:00,
2013-03-06 03:10:00,24.3,21.0,30.38,NW,310,7.0,11.0,86,0.00,,,0.00,weatherlink.com 1.10,2013-03-06 09:10:00,
2013-03-06 03:25:00,24.3,21.0,30.38,WNW,297,4.0,17.0,86,0.00,,,0.00,weatherlink.com 1.10,2013-03-06 09:25:00,
2013-03-06 03:40:00,24.4,21.0,30.39,NW,319,13.0,18.0,86,0.00,,,0.00,weatherlink.com 1.10,2013-03-06 09:40:00,
2013-03-06 03:55:00,24.3,21.0,30.39,NW,306,3.0,15.0,86,0.00,,,0.00,weatherlink.com 1.10,2013-03-06 09:55:00,
2013-03-06 04:10:00,24.3,21.0,30.40,NW,315,11.0,19.0,86,0.00,,,0.00,weatherlink.com 1.10,2013-03-06 10:10:00,
2013-03-06 04:25:00,24.3,21.0,30.41,NW,309,9.0,18.0,86,0.00,,,0.00,weatherlink.com 1.10,2013-03-06 10:25:00,
2013-03-06 04:40:00,24.3,21.0,30.41,NW,314,10.0,16.0,86,0.00,,,0.00,weatherlink.com 1.10,2013-03-06 10:40:00,
2013-03-06 04:55:00,24.2,21.0,30.41,WNW,302,8.0,19.0,86,0.00,,,0.00,weatherlink.com 1.10,2013-03-06 10:55:00,
2013-03-06 05:10:00,24.0,20.0,30.42,NW,326,6.0,19.0,85,0.00,,,0.00,weatherlink.com 1.10,2013-03-06 11:10:00,
2013-03-06 05:25:00,23.8,20.0,30.42,NW,323,12.0,19.0,85,0.00,,,0.00,weatherlink.com 1.10,2013-03-06 11:25:00,
2013-03-06 05:41:00,23.7,20.0,30.42,NW,316,6.0,19.0,84,0.00,,,0.00,weatherlink.com 1.10,2013-03-06 11:41:00,
2013-03-06 05:56:00,23.6,20.0,30.42,NW,313,8.0,17.0,84,0.00,,,0.00,weatherlink.com 1.10,2013-03-06 11:56:00,
2013-03-06 06:11:00,23.1,19.0,30.42,NW,319,2.0,16.0,84,0.00,,,0.00,weatherlink.com 1.10,2013-03-06 12:11:00,
2013-03-06 06:26:00,22.4,18.0,30.43,NW,320,5.0,16.0,84,0.00,,,0.00,weatherlink.com 1.10,2013-03-06 12:26:00,
2013-03-06 06:41:00,21.8,18.0,30.43,NW,315,3.0,13.0,85,0.00,,,0.00,weatherlink.com 1.10,2013-03-06 12:41:00,
2013-03-06 06:56:00,21.3,18.0,30.44,NW,318,6.0,16.0,86,0.00,,,0.00,weatherlink.com 1.10,2013-03-06 12:56:00,
2013-03-06 07:11:00,21.0,18.0,30.44,NW,315,4.0,9.0,86,0.00,,,0.00,weatherlink.com 1.10,2013-03-06 13:11:00,
2013-03-06 07:26:00,21.0,18.0,30.44,NW,322,6.0,8.0,86,0.00,,,0.00,weatherlink.com 1.10,2013-03-06 13:26:00,
2013-03-06 07:41:00,21.4,18.0,30.44,NW,322,1.0,8.0,87,0.00,,,0.00,weatherlink.com 1.10,2013-03-06 13:41:00,
2013-03-06 07:56:00,22.0,19.0,30.45,NW,323,4.0,6.0,87,0.00,,,0.00,weatherlink.com 1.10,2013-03-06 13:56:00,
2013-03-06 08:11:00,22.9,20.0,30.45,NW,324,7.0,8.0,87,0.00,,,0.00,weatherlink.com 1.10,2013-03-06 14:11:00,
2013-03-06 08:26:00,23.8,20.0,30.46,NNW,330,0.0,9.0,85,0.00,,,0.00,weatherlink.com 1.10,2013-03-06 14:26:00,
2013-03-06 08:41:00,25.1,21.0,30.46,NW,325,7.0,9.0,83,0.00,,,0.00,weatherlink.com 1.10,2013-03-06 14:41:00,
2013-03-06 08:56:00,25.4,21.0,30.46,NW,315,3.0,7.0,82,0.00,,,0.00,weatherlink.com 1.10,2013-03-06 14:56:00,
2013-03-06 09:11:00,26.0,21.0,30.46,NW,314,3.0,9.0,81,0.00,,,0.00,weatherlink.com 1.10,2013-03-06 15:11:00,
2013-03-06 09:26:00,26.4,21.0,30.46,WNW,296,5.0,14.0,80,0.00,,,0.00,weatherlink.com 1.10,2013-03-06 15:26:00,
2013-03-06 09:41:00,27.1,21.0,30.46,NNW,330,8.0,10.0,78,0.00,,,0.00,weatherlink.com 1.10,2013-03-06 15:41:00,
2013-03-06 09:56:00,26.9,21.0,30.46,NW,315,3.0,13.0,77,0.00,,,0.00,weatherlink.com 1.10,2013-03-06 15:56:00,
2013-03-06 10:11:00,26.9,20.0,30.46,North,360,9.0,14.0,76,0.00,,,0.00,weatherlink.com 1.10,2013-03-06 16:11:00,
2013-03-06 10:26:00,26.8,21.0,30.45,North,5,6.0,8.0,77,0.00,,,0.00,weatherlink.com 1.10,2013-03-06 16:26:00,
2013-03-06 10:41:00,27.5,21.0,30.45,North,355,5.0,11.0,75,0.00,,,0.00,weatherlink.com 1.10,2013-03-06 16:41:00,
2013-03-06 10:56:00,28.1,21.0,30.46,NNW,332,4.0,9.0,74,0.00,,,0.00,weatherlink.com 1.10,2013-03-06 16:56:00,
2013-03-06 11:11:00,28.1,20.0,30.46,NNW,331,3.0,9.0,73,0.00,,,0.00,weatherlink.com 1.10,2013-03-06 17:11:00,
2013-03-06 11:26:00,28.2,21.0,30.45,NNW,346,4.0,10.0,74,0.00,,,0.00,weatherlink.com 1.10,2013-03-06 17:26:00,
2013-03-06 11:41:00,28.5,21.0,30.45,NNW,344,5.0,8.0,73,0.00,,,0.00,weatherlink.com 1.10,2013-03-06 17:41:00,
2013-03-06 11:56:00,29.2,21.0,30.44,NNW,329,6.0,10.0,72,0.00,,,0.00,weatherlink.com 1.10,2013-03-06 17:56:00,
2013-03-06 12:11:00,29.1,21.0,30.44,NNW,340,8.0,10.0,72,0.00,,,0.00,weatherlink.com 1.10,2013-03-06 18:11:00,
2013-03-06 12:26:00,29.7,21.0,30.44,NNW,329,6.0,9.0,69,0.00,,,0.00,weatherlink.com 1.10,2013-03-06 18:26:00,
2013-03-06 12:41:00,30.1,21.0,30.44,NNW,339,7.0,9.0,70,0.00,,,0.00,weatherlink.com 1.10,2013-03-06 18:41:00,
2013-03-06 12:56:00,29.4,21.0,30.44,North,355,5.0,11.0,70,0.00,,,0.00,weatherlink.com 1.10,2013-03-06 18:56:00,
2013-03-06 13:11:00,30.0,21.0,30.43,NW,322,4.0,9.0,69,0.00,,,0.00,weatherlink.com 1.10,2013-03-06 19:11:00,
2013-03-06 13:26:00,29.7,21.0,30.43,NNW,333,3.0,9.0,70,0.00,,,0.00,weatherlink.com 1.10,2013-03-06 19:26:00,
2013-03-06 13:41:00,30.0,21.0,30.42,NW,321,3.0,9.0,69,0.00,,,0.00,weatherlink.com 1.10,2013-03-06 19:41:00,
2013-03-06 13:56:00,30.9,22.0,30.41,NW,307,4.0,13.0,69,0.00,,,0.00,weatherlink.com 1.10,2013-03-06 19:56:00,
2013-03-06 14:11:00,30.2,22.0,30.41,NW,309,4.0,8.0,71,0.00,,,0.00,weatherlink.com 1.10,2013-03-06 20:11:00,
2013-03-06 14:26:00,29.7,21.0,30.41,NW,314,6.0,8.0,71,0.00,,,0.00,weatherlink.com 1.10,2013-03-06 20:26:00,
2013-03-06 14:41:00,29.8,21.0,30.41,NW,314,0.0,6.0,71,0.00,,,0.00,weatherlink.com 1.10,2013-03-06 20:41:00,
2013-03-06 14:56:00,29.8,21.0,30.41,NW,315,4.0,7.0,71,0.00,,,0.00,weatherlink.com 1.10,2013-03-06 20:56:00,
2013-03-06 15:11:00,29.9,22.0,30.41,NW,314,0.0,7.0,71,0.00,,,0.00,weatherlink.com 1.10,2013-03-06 21:11:00,
2013-03-06 15:26:00,29.3,21.0,30.40,NW,315,0.0,6.0,71,0.00,,,0.00,weatherlink.com 1.10,2013-03-06 21:26:00,
2013-03-06 15:41:00,29.1,21.0,30.40,NW,315,0.0,4.0,71,0.00,,,0.00,weatherlink.com 1.10,2013-03-06 21:41:00,
2013-03-06 15:56:00,29.8,21.0,30.40,NW,315,0.0,5.0,71,0.00,,,0.00,weatherlink.com 1.10,2013-03-06 21:56:00,
2013-03-06 16:11:00,31.2,22.0,30.40,WNW,298,0.0,9.0,69,0.00,,,0.00,weatherlink.com 1.10,2013-03-06 22:11:00,
2013-03-06 16:27:00,30.4,21.0,30.39,WNW,289,2.0,7.0,69,0.00,,,0.00,weatherlink.com 1.10,2013-03-06 22:27:00,
2013-03-06 16:41:00,29.6,21.0,30.39,WNW,290,0.0,5.0,70,0.00,,,0.00,weatherlink.com 1.10,2013-03-06 22:41:00,
2013-03-06 16:56:00,29.7,21.0,30.39,WNW,290,3.0,5.0,71,0.00,,,0.00,weatherlink.com 1.10,2013-03-06 22:56:00,
2013-03-06 17:12:00,29.5,21.0,30.39,WNW,290,0.0,4.0,70,0.00,,,0.00,weatherlink.com 1.10,2013-03-06 23:12:00,
2013-03-06 17:27:00,29.5,21.0,30.39,WNW,290,0.0,0.0,71,0.00,,,0.00,weatherlink.com 1.10,2013-03-06 23:27:00,
2013-03-06 17:42:00,29.2,21.0,30.39,WNW,290,0.0,4.0,71,0.00,,,0.00,weatherlink.com 1.10,2013-03-06 23:42:00,
2013-03-06 17:57:00,28.9,21.0,30.39,WNW,290,0.0,0.0,72,0.00,,,0.00,weatherlink.com 1.10,2013-03-06 23:57:00,
2013-03-06 18:12:00,28.6,21.0,30.39,WNW,290,3.0,6.0,73,0.00,,,0.00,weatherlink.com 1.10,2013-03-07 00:12:00,
2013-03-06 18:27:00,27.8,21.0,30.39,WNW,292,0.0,6.0,75,0.00,,,0.00,weatherlink.com 1.10,2013-03-07 00:27:00,
2013-03-06 18:57:00,26.4,20.0,30.38,WNW,294,0.0,5.0,78,0.00,,,0.00,weatherlink.com 1.10,2013-03-07 00:57:00,
2013-03-06 19:12:00,25.7,20.0,30.38,WNW,294,0.0,3.0,78,0.00,,,0.00,weatherlink.com 1.10,2013-03-07 01:12:00,
2013-03-06 19:27:00,25.0,19.0,30.37,WNW,294,1.0,5.0,79,0.00,,,0.00,weatherlink.com 1.10,2013-03-07 01:27:00,
2013-03-06 19:42:00,24.5,19.0,30.37,WNW,296,2.0,5.0,80,0.00,,,0.00,weatherlink.com 1.10,2013-03-07 01:42:00,
2013-03-06 19:57:00,24.1,19.0,30.37,WNW,296,0.0,5.0,81,0.00,,,0.00,weatherlink.com 1.10,2013-03-07 01:57:00,
2013-03-06 20:12:00,23.7,19.0,30.37,WNW,297,0.0,4.0,82,0.00,,,0.00,weatherlink.com 1.10,2013-03-07 02:12:00,
2013-03-06 20:27:00,23.3,19.0,30.37,WNW,297,0.0,0.0,82,0.00,,,0.00,weatherlink.com 1.10,2013-03-07 02:27:00,
2013-03-06 20:42:00,22.6,18.0,30.37,WNW,297,0.0,0.0,82,0.00,,,0.00,weatherlink.com 1.10,2013-03-07 02:42:00,
2013-03-06 20:57:00,21.9,18.0,30.37,WNW,297,0.0,4.0,83,0.00,,,0.00,weatherlink.com 1.10,2013-03-07 02:57:00,
2013-03-06 21:12:00,21.5,17.0,30.38,WNW,297,0.0,5.0,84,0.00,,,0.00,weatherlink.com 1.10,2013-03-07 03:12:00,
2013-03-06 21:27:00,21.1,17.0,30.38,WNW,298,3.0,5.0,85,0.00,,,0.00,weatherlink.com 1.10,2013-03-07 03:27:00,
2013-03-06 21:42:00,20.8,17.0,30.38,WNW,298,0.0,4.0,85,0.00,,,0.00,weatherlink.com 1.10,2013-03-07 03:42:00,
2013-03-06 21:57:00,20.3,17.0,30.38,WNW,298,0.0,4.0,86,0.00,,,0.00,weatherlink.com 1.10,2013-03-07 03:57:00,
2013-03-06 22:12:00,20.0,17.0,30.39,WNW,298,0.0,0.0,86,0.00,,,0.00,weatherlink.com 1.10,2013-03-07 04:12:00,
2013-03-06 22:27:00,19.5,16.0,30.38,WNW,298,0.0,3.0,86,0.00,,,0.00,weatherlink.com 1.10,2013-03-07 04:27:00,
2013-03-06 22:42:00,19.0,16.0,30.38,WNW,298,0.0,0.0,87,0.00,,,0.00,weatherlink.com 1.10,2013-03-07 04:42:00,
2013-03-06 22:57:00,18.7,16.0,30.37,WNW,298,0.0,3.0,87,0.00,,,0.00,weatherlink.com 1.10,2013-03-07 04:57:00,
2013-03-06 23:27:00,18.1,15.0,30.38,WNW,298,0.0,0.0,88,0.00,,,0.00,weatherlink.com 1.10,2013-03-07 05:27:00,
2013-03-06 23:42:00,17.9,15.0,30.38,WNW,298,0.0,0.0,88,0.00,,,0.00,weatherlink.com 1.10,2013-03-07 05:42:00,
2013-03-06 23:57:00,17.5,15.0,30.39,WNW,298,0.0,0.0,88,0.00,,,0.00,weatherlink.com 1.10,2013-03-07 05:57:00,